Time;durP1;ratioP1;P1;durP2;ratioP2;P2;SDS_P1;SDS_P2;PMS_P1;PMS_P2;Temp;Humidity;BMP_temperature;BMP_pressure;BME280_temperature;BME280_humidity;BME280_pressure;Samples;Min_cycle;Max_cycle;Signal;HPM_P1;HPM_P2
2022/08/23 00:02:52;;;;;;;12.45;7.70;;;;;;;16.99;100.00;101243.47;5092472;28;20097;-76
2022/08/23 00:05:17;;;;;;;15.40;8.50;;;;;;;16.95;100.00;101236.94;5095251;28;20040;-76
2022/08/23 00:07:42;;;;;;;14.27;8.77;;;;;;;16.91;100.00;101233.09;5073971;28;20270;-77
2022/08/23 00:10:11;;;;;;;11.32;7.90;;;;;;;16.92;100.00;101242.00;5076302;28;20044;-77
2022/08/23 00:12:36;;;;;;;14.18;8.32;;;;;;;16.82;100.00;101229.16;5092209;28;20032;-76
2022/08/23 00:15:02;;;;;;;14.57;9.30;;;;;;;16.70;100.00;101239.22;5092102;28;20103;-77
2022/08/23 00:17:28;;;;;;;13.13;8.80;;;;;;;16.66;100.00;101230.78;5095166;28;20093;-76
2022/08/23 00:19:53;;;;;;;10.97;8.00;;;;;;;16.65;100.00;101225.59;5093815;28;20063;-76
2022/08/23 00:22:18;;;;;;;11.90;7.88;;;;;;;16.67;100.00;101223.50;5098643;28;20294;-77
2022/08/23 00:24:43;;;;;;;11.80;8.47;;;;;;;16.60;100.00;101220.13;5095653;28;20028;-76
2022/08/23 00:27:16;;;;;;;12.82;8.70;;;;;;;16.53;100.00;101224.88;5095602;28;20353;-77
2022/08/23 00:29:48;;;;;;;14.40;9.00;;;;;;;16.47;100.00;101233.91;5098456;28;20044;-77
2022/08/23 00:32:16;;;;;;;;;;;;;;;16.49;100.00;101229.94;5077752;28;20146;-76
2022/08/23 00:34:41;;;;;;;11.95;8.43;;;;;;;16.41;100.00;101224.91;5098507;28;19915;-76
2022/08/23 00:37:08;;;;;;;14.32;8.95;;;;;;;16.41;100.00;101223.03;5095498;28;20020;-76
2022/08/23 00:39:34;;;;;;;16.58;9.75;;;;;;;16.41;100.00;101230.31;5079806;28;20519;-76
2022/08/23 00:47:44;;;;;;;21.70;10.27;;;;;;;16.31;100.00;101227.44;5095802;28;20426;-76
2022/08/23 00:50:35;;;;;;;16.02;10.25;;;;;;;16.32;100.00;101229.91;5076962;28;20039;-76
2022/08/23 00:53:10;;;;;;;18.10;10.20;;;;;;;16.25;100.00;101226.53;5098124;28;20048;-76
2022/08/23 00:55:37;;;;;;;17.33;10.20;;;;;;;16.19;100.00;101232.91;5095202;28;20020;-76
2022/08/23 00:58:02;;;;;;;19.00;11.23;;;;;;;16.05;100.00;101232.38;5097989;28;20044;-76
2022/08/23 01:00:28;;;;;;;15.82;10.02;;;;;;;16.06;100.00;101227.78;5094988;28;20054;-76
2022/08/23 01:06:25;;;;;;;13.25;10.07;;;;;;;16.01;100.00;101246.56;5095334;28;20042;-77
2022/08/23 01:08:57;;;;;;;21.67;12.25;;;;;;;15.92;100.00;101239.94;5098013;28;20043;-77
2022/08/23 01:11:31;;;;;;;21.80;12.27;;;;;;;15.92;100.00;101234.53;5094883;28;20038;-76
2022/08/23 01:14:04;;;;;;;17.90;12.07;;;;;;;15.86;100.00;101232.78;5094782;28;20052;-76
2022/08/23 01:16:40;;;;;;;19.35;11.43;;;;;;;15.86;100.00;101239.00;5068110;28;20079;-76
2022/08/23 01:19:13;;;;;;;22.70;13.40;;;;;;;15.87;100.00;101246.03;5094804;28;20373;-76
2022/08/23 01:22:03;;;;;;;16.35;11.93;;;;;;;15.83;100.00;101238.66;5097562;28;20550;-76
2022/08/23 01:24:29;;;;;;;17.95;10.95;;;;;;;15.78;100.00;101239.38;5094448;28;20476;-77
2022/08/23 01:26:55;;;;;;;17.80;10.80;;;;;;;15.73;100.00;101239.28;5097495;28;20070;-77
2022/08/23 01:29:20;;;;;;;17.38;12.20;;;;;;;15.70;100.00;101242.44;5094505;28;20071;-76
2022/08/23 01:31:45;;;;;;;19.37;12.43;;;;;;;15.60;100.00;101239.53;5077998;28;20401;-76
2022/08/23 01:34:13;;;;;;;17.70;11.77;;;;;;;15.51;100.00;101236.34;5095011;28;20274;-76
2022/08/23 01:36:38;;;;;;;23.55;12.88;;;;;;;15.48;100.00;101234.13;5094432;28;20672;-76
2022/08/23 01:39:04;;;;;;;20.77;13.88;;;;;;;15.46;100.00;101233.53;5097447;28;20048;-76
2022/08/23 01:41:30;;;;;;;17.02;11.32;;;;;;;15.47;100.00;101236.00;5094396;28;20131;-76
2022/08/23 01:43:55;;;;;;;18.33;12.73;;;;;;;15.39;100.00;101233.69;5097393;28;20047;-76
2022/08/23 01:46:22;;;;;;;19.77;12.73;;;;;;;15.42;100.00;101243.16;5076408;28;20028;-77
2022/08/23 01:48:50;;;;;;;20.23;12.55;;;;;;;15.40;100.00;101237.19;5094728;28;20046;-76
2022/08/23 01:51:17;;;;;;;17.30;11.35;;;;;;;15.40;100.00;101229.94;5078586;28;20036;-76
2022/08/23 01:53:43;;;;;;;19.38;11.73;;;;;;;15.30;100.00;101242.34;5094387;28;20040;-76
2022/08/23 01:56:08;;;;;;;18.98;12.05;;;;;;;15.25;100.00;101247.63;5097002;28;20082;-76
2022/08/23 01:58:34;;;;;;;16.42;10.98;;;;;;;15.24;100.00;101248.66;5094157;28;20476;-76
2022/08/23 02:01:00;;;;;;;15.55;10.57;;;;;;;15.26;100.00;101244.69;5079225;28;20399;-76
2022/08/23 02:03:27;;;;;;;17.75;12.40;;;;;;;15.30;100.00;101248.53;5094047;28;20028;-76
2022/08/23 02:05:53;;;;;;;18.08;11.07;;;;;;;15.30;100.00;101245.84;5094008;28;20077;-76
2022/08/23 02:11:11;;;;;;;21.55;11.13;;;;;;;15.21;100.00;101246.44;5093855;28;20082;-76
2022/08/23 02:13:36;;;;;;;16.63;11.43;;;;;;;15.26;100.00;101244.69;5096923;28;20052;-76
2022/08/23 02:16:03;;;;;;;21.42;11.07;;;;;;;15.30;100.00;101250.41;5093905;28;20061;-76
2022/08/23 02:18:29;;;;;;;19.25;10.45;;;;;;;15.32;100.00;101249.13;5096867;28;20089;-76
2022/08/23 02:20:54;;;;;;;18.13;11.02;;;;;;;15.21;100.00;101243.75;5093689;28;20024;-76
2022/08/23 02:23:21;;;;;;;17.10;10.48;;;;;;;15.17;100.00;101241.53;5093765;28;20039;-76
2022/08/23 02:25:47;;;;;;;17.90;11.18;;;;;;;15.17;100.00;101240.72;5096630;28;20165;-76
2022/08/23 02:28:12;;;;;;;19.33;11.95;;;;;;;15.16;100.00;101244.47;5075510;28;20028;-76
2022/08/23 02:30:38;;;;;;;18.15;11.93;;;;;;;15.18;100.00;101243.16;5096343;28;20047;-76
2022/08/23 02:33:04;;;;;;;18.60;13.23;;;;;;;15.20;100.00;101237.53;5093708;28;20028;-76
2022/08/23 02:35:32;;;;;;;18.30;12.55;;;;;;;15.22;100.00;101242.69;5096682;28;20071;-76
2022/08/23 02:37:57;;;;;;;17.67;12.15;;;;;;;15.33;100.00;101252.66;5093408;28;20399;-76
2022/08/23 02:40:23;;;;;;;23.95;13.98;;;;;;;15.39;100.00;101249.84;5093458;28;20046;-76
2022/08/23 02:42:48;;;;;;;17.92;11.98;;;;;;;15.37;100.00;101243.88;5096279;28;20428;-76
2022/08/23 02:45:16;;;;;;;21.38;12.88;;;;;;;15.47;100.00;101248.66;5093333;28;20353;-76
2022/08/23 02:47:41;;;;;;;17.38;11.38;;;;;;;15.42;100.00;101241.28;5078317;28;20118;-76
2022/08/23 02:50:07;;;;;;;19.10;12.43;;;;;;;15.41;100.00;101252.31;5093448;28;20079;-76
2022/08/23 02:52:34;;;;;;;17.85;11.65;;;;;;;15.30;100.00;101253.94;5075937;28;20024;-76
2022/08/23 02:54:59;;;;;;;19.98;12.77;;;;;;;15.24;100.00;101252.19;5095259;28;20066;-77
2022/08/23 02:57:25;;;;;;;17.40;12.38;;;;;;;15.25;100.00;101250.31;5093245;28;20028;-76
2022/08/23 02:59:51;;;;;;;19.85;12.52;;;;;;;15.34;100.00;101249.75;5096087;28;20051;-77
2022/08/23 03:05:38;;;;;;;21.50;12.13;;;;;;;15.32;100.00;101254.50;5093280;28;20123;-76
2022/08/23 03:08:04;;;;;;;19.25;12.05;;;;;;;15.28;100.00;101261.44;5074981;28;20122;-77
2022/08/23 03:10:29;;;;;;;17.33;11.18;;;;;;;15.24;100.00;101259.44;5095790;28;20074;-76
2022/08/23 03:12:55;;;;;;;18.23;11.43;;;;;;;15.29;100.00;101270.34;5074879;28;20046;-76
2022/08/23 03:15:21;;;;;;;25.75;13.23;;;;;;;15.30;100.00;101262.00;5074838;28;20024;-76
2022/08/23 03:17:46;;;;;;;15.40;10.80;;;;;;;15.39;100.00;101268.72;5095961;28;20176;-76
2022/08/23 03:20:11;;;;;;;19.55;12.63;;;;;;;15.40;100.00;101267.66;5092953;28;20028;-76
2022/08/23 03:22:37;;;;;;;17.63;12.20;;;;;;;15.44;100.00;101268.00;5095911;28;20059;-76
2022/08/23 03:25:04;;;;;;;20.48;11.32;;;;;;;15.47;100.00;101265.66;5092822;28;20077;-76
2022/08/23 03:27:30;;;;;;;17.55;11.60;;;;;;;15.54;100.00;101270.91;5094652;28;20403;-76
2022/08/23 03:29:56;;;;;;;18.27;12.55;;;;;;;15.59;100.00;101273.75;5093639;28;20036;-76
2022/08/23 03:32:21;;;;;;;20.95;12.77;;;;;;;15.53;100.00;101277.34;5092698;28;20429;-77
2022/08/23 03:34:47;;;;;;;18.33;13.13;;;;;;;15.55;100.00;101269.84;5077716;28;20032;-76
2022/08/23 03:37:13;;;;;;;18.13;12.98;;;;;;;15.57;100.00;101275.81;5074246;28;20047;-76
2022/08/23 03:39:38;;;;;;;21.00;13.75;;;;;;;15.57;100.00;101275.81;5077111;28;20396;-76
2022/08/23 03:42:03;;;;;;;19.87;14.17;;;;;;;15.61;100.00;101282.44;5092087;28;20027;-76
2022/08/23 03:44:29;;;;;;;18.20;13.65;;;;;;;15.65;100.00;101277.41;5092076;28;20281;-76
2022/08/23 03:46:54;;;;;;;18.08;12.98;;;;;;;15.69;100.00;101282.06;5077198;28;20606;-76
2022/08/23 03:49:19;;;;;;;17.35;13.30;;;;;;;15.64;100.00;101278.44;5091853;28;20041;-76
2022/08/23 03:51:45;;;;;;;18.87;13.43;;;;;;;15.61;100.00;101271.66;5094931;28;20082;-76
2022/08/23 03:54:10;;;;;;;20.15;13.05;;;;;;;15.65;100.00;101283.59;5073087;28;20277;-77
2022/08/23 03:56:38;;;;;;;17.30;12.15;;;;;;;15.67;100.00;101284.19;5075680;28;20098;-76
2022/08/23 03:59:07;;;;;;;18.80;13.57;;;;;;;15.66;100.00;101279.84;5092480;28;20072;-77
2022/08/23 04:01:32;;;;;;;20.73;13.57;;;;;;;15.63;100.00;101280.31;5091738;28;20047;-76
2022/08/23 04:03:58;;;;;;;19.03;13.00;;;;;;;15.55;100.00;101269.03;5094719;28;20040;-76
2022/08/23 04:06:26;;;;;;;19.73;12.75;;;;;;;15.55;100.00;101277.94;5091639;28;20672;-76
2022/08/23 04:08:53;;;;;;;20.17;12.85;;;;;;;15.52;100.00;101273.03;5076709;28;20040;-76
2022/08/23 04:11:19;;;;;;;18.88;13.68;;;;;;;15.55;100.00;101280.63;5073467;28;20066;-76
2022/08/23 04:13:45;;;;;;;22.17;13.63;;;;;;;15.54;100.00;101289.78;5092359;28;20131;-76
2022/08/23 04:16:10;;;;;;;21.75;13.90;;;;;;;15.53;100.00;101281.94;5075835;28;20492;-76
2022/08/23 04:18:36;;;;;;;24.02;14.30;;;;;;;15.56;100.00;101286.84;5091604;28;20094;-76
2022/08/23 04:21:06;;;;;;;19.60;13.57;;;;;;;15.62;100.00;101292.16;5094496;28;20044;-76
2022/08/23 04:23:32;;;;;;;21.50;13.90;;;;;;;15.59;100.00;101281.81;5073381;28;20643;-76
2022/08/23 04:25:57;;;;;;;20.40;13.32;;;;;;;15.65;100.00;101286.31;5076470;28;20036;-77
2022/08/23 04:28:23;;;;;;;20.33;13.75;;;;;;;15.68;100.00;101293.09;5073178;28;20028;-76
2022/08/23 04:30:49;;;;;;;21.40;13.75;;;;;;;15.72;100.00;101296.94;5091474;28;20027;-76
2022/08/23 04:33:16;;;;;;;20.50;15.32;;;;;;;15.71;100.00;101289.91;5076452;28;20040;-76
2022/08/23 04:35:41;;;;;;;21.92;13.82;;;;;;;15.74;100.00;101298.34;5091340;28;20537;-76
2022/08/23 04:38:06;;;;;;;23.23;15.05;;;;;;;15.72;100.00;101297.78;5076331;28;20115;-76
2022/08/23 04:43:16;;;;;;;25.63;16.63;;;;;;;15.70;100.00;101305.28;5094581;28;20035;-76
2022/08/23 04:45:41;;;;;;;27.25;14.27;;;;;;;15.70;100.00;101301.75;5073017;28;20465;-76
2022/08/23 04:48:08;;;;;;;23.77;14.87;;;;;;;15.75;100.00;101307.25;5091187;28;20469;-76
2022/08/23 04:50:35;;;;;;;23.30;14.73;;;;;;;15.80;100.00;101310.06;5076245;28;20324;-76
2022/08/23 04:53:00;;;;;;;18.58;14.63;;;;;;;15.86;100.00;101306.41;5090934;28;20063;-76
2022/08/23 04:55:26;;;;;;;19.48;14.38;;;;;;;15.89;100.00;101318.59;5094206;28;20047;-76
2022/08/23 04:57:51;;;;;;;23.20;14.80;;;;;;;15.92;100.00;101315.47;5091088;28;20047;-76
2022/08/23 05:00:17;;;;;;;28.15;16.20;;;;;;;15.96;100.00;101319.31;5075918;28;20085;-76
2022/08/23 05:02:42;;;;;;;21.90;15.50;;;;;;;16.06;100.00;101314.94;5091004;28;20056;-76
2022/08/23 05:05:09;;;;;;;23.33;16.05;;;;;;;16.23;100.00;101316.91;5090883;28;20115;-76
2022/08/23 05:07:36;;;;;;;26.23;15.13;;;;;;;16.33;100.00;101311.69;5096516;28;20502;-76
2022/08/23 05:10:02;;;;;;;24.23;14.90;;;;;;;16.39;100.00;101311.53;5094692;28;20518;-77
2022/08/23 05:12:28;;;;;;;23.45;15.30;;;;;;;16.45;100.00;101317.03;5079532;28;20051;-76
2022/08/23 05:14:53;;;;;;;20.85;15.40;;;;;;;16.43;100.00;101311.88;5076072;28;20024;-77
2022/08/23 05:17:21;;;;;;;25.10;15.93;;;;;;;16.44;100.00;101321.59;5096216;28;20135;-76
2022/08/23 05:19:47;;;;;;;25.80;16.95;;;;;;;16.46;100.00;101318.66;5076591;28;20278;-77
2022/08/23 05:22:12;;;;;;;30.88;17.42;;;;;;;16.43;100.00;101303.78;5094139;28;20391;-76
2022/08/23 05:24:37;;;;;;;26.13;15.88;;;;;;;16.52;100.00;101321.25;5097152;28;20131;-76
2022/08/23 05:27:03;;;;;;;23.27;16.57;;;;;;;16.61;100.00;101310.88;5094233;28;20080;-76
2022/08/23 05:29:28;;;;;;;24.77;17.42;;;;;;;16.68;100.00;101322.34;5097221;28;20286;-76
2022/08/23 05:31:53;;;;;;;22.50;16.70;;;;;;;16.69;100.00;101316.72;5093997;28;20039;-76
2022/08/23 05:34:19;;;;;;;24.70;16.05;;;;;;;16.83;100.00;101327.22;5093982;28;20024;-76
2022/08/23 05:36:44;;;;;;;24.87;16.50;;;;;;;16.88;100.00;101328.13;5079111;28;20043;-77
2022/08/23 05:39:10;;;;;;;24.13;16.63;;;;;;;16.92;100.00;101321.16;5093941;28;20733;-76
2022/08/23 05:41:35;;;;;;;25.15;17.10;;;;;;;17.06;100.00;101331.66;5096968;28;20038;-77
2022/08/23 05:44:01;;;;;;;23.92;17.23;;;;;;;17.19;100.00;101342.97;5093858;28;20360;-76
2022/08/23 05:46:26;;;;;;;29.42;17.50;;;;;;;17.22;100.00;101350.59;5096915;28;20048;-76
2022/08/23 05:48:52;;;;;;;25.93;17.03;;;;;;;17.29;100.00;101361.22;5075701;28;20090;-76
2022/08/23 05:51:23;;;;;;;29.77;17.50;;;;;;;17.30;100.00;101352.06;5093752;28;20384;-76
2022/08/23 05:53:51;;;;;;;31.02;19.70;;;;;;;17.43;100.00;101359.03;5096908;28;20404;-76
2022/08/23 05:56:19;;;;;;;32.13;23.13;;;;;;;17.53;100.00;101370.00;5093767;28;20028;-76
2022/08/23 05:58:46;;;;;;;31.88;23.00;;;;;;;17.55;100.00;101360.56;5078797;28;20259;-76
2022/08/23 06:01:13;;;;;;;41.08;25.48;;;;;;;17.57;100.00;101361.13;5093493;28;20035;-76
2022/08/23 06:03:39;;;;;;;37.65;28.35;;;;;;;17.54;100.00;101367.03;5096671;28;20047;-76
2022/08/23 06:06:05;;;;;;;38.42;28.70;;;;;;;17.62;100.00;101360.38;5093560;28;20030;-76
2022/08/23 06:08:31;;;;;;;38.35;27.92;;;;;;;17.73;100.00;101374.94;5093542;28;20367;-76
2022/08/23 06:11:06;;;;;;;40.50;29.23;;;;;;;17.77;100.00;101359.84;5096366;28;20040;-76
2022/08/23 06:13:31;;;;;;;36.40;27.45;;;;;;;17.91;100.00;101363.81;5093355;28;20116;-76
2022/08/23 06:15:57;;;;;;;38.38;28.45;;;;;;;17.92;100.00;101358.13;5096454;28;20115;-76
2022/08/23 06:18:23;;;;;;;44.67;29.95;;;;;;;18.04;100.00;101368.88;5074754;28;20065;-76
2022/08/23 06:20:59;;;;;;;41.20;31.08;;;;;;;18.13;100.00;101371.94;5077505;28;20047;-76
2022/08/23 06:23:25;;;;;;;40.72;31.10;;;;;;;18.18;100.00;101372.00;5093117;28;20055;-75
2022/08/23 06:29:18;;;;;;;38.83;29.77;;;;;;;18.34;100.00;101362.19;5093565;28;20050;-76
2022/08/23 06:31:49;;;;;;;43.97;31.20;;;;;;;18.50;100.00;101378.38;5093174;28;20028;-75
2022/08/23 06:34:20;;;;;;;46.95;34.97;;;;;;;18.63;100.00;101379.91;5096210;28;20496;-76
2022/08/23 06:36:49;;;;;;;45.83;34.25;;;;;;;18.94;100.00;101385.63;5093011;28;20032;-75
2022/08/23 06:39:16;;;;;;;46.75;31.85;;;;;;;19.23;100.00;101369.91;5078179;28;20031;-75
2022/08/23 06:41:42;;;;;;;41.00;32.25;;;;;;;19.78;99.08;101374.94;5074774;28;20081;-76
2022/08/23 06:44:09;;;;;;;45.70;31.15;;;;;;;20.66;97.76;101380.53;5095971;28;20052;-76
2022/08/23 06:46:35;;;;;;;54.85;29.80;;;;;;;22.03;90.97;101374.25;5092870;28;20529;-75
2022/08/23 06:49:04;;;;;;;39.63;27.17;;;;;;;22.96;80.22;101381.75;5092759;28;20028;-75
2022/08/23 06:51:39;;;;;;;33.67;25.50;;;;;;;23.72;79.10;101383.84;5095750;28;20048;-76
2022/08/23 06:54:08;;;;;;;38.25;26.02;;;;;;;24.06;73.73;101378.28;5092794;28;20081;-76
2022/08/23 06:56:34;;;;;;;35.45;24.25;;;;;;;24.40;72.08;101376.25;5095831;28;20048;-76
2022/08/23 06:59:02;;;;;;;28.67;22.40;;;;;;;25.53;67.69;101373.44;5074450;28;20069;-76
2022/08/23 07:01:52;;;;;;;31.60;22.33;;;;;;;26.20;69.04;101375.72;5095664;28;20069;-76
2022/08/23 07:04:38;;;;;;;28.35;21.25;;;;;;;26.69;67.01;101374.97;5092538;28;20064;-76
2022/08/23 07:10:25;;;;;;;31.23;20.15;;;;;;;28.36;55.60;101372.56;5092580;28;20449;-76
2022/08/23 07:12:50;;;;;;;27.30;18.85;;;;;;;28.86;51.81;101371.31;5095503;28;20043;-76
2022/08/23 07:15:15;;;;;;;26.90;19.23;;;;;;;29.66;50.37;101382.69;5074540;28;20106;-76
2022/08/23 07:17:41;;;;;;;27.27;19.13;;;;;;;30.17;50.06;101395.47;5092757;28;20039;-76
2022/08/23 07:20:06;;;;;;;23.35;17.77;;;;;;;30.79;47.08;101392.00;5095643;28;20032;-76
2022/08/23 07:22:32;;;;;;;24.20;17.83;;;;;;;31.20;45.15;101384.81;5092449;28;20032;-76
2022/08/23 07:24:57;;;;;;;33.13;18.70;;;;;;;31.57;45.16;101394.03;5095359;28;20047;-76
2022/08/23 07:27:23;;;;;;;31.30;19.23;;;;;;;31.70;42.69;101390.13;5074430;28;20269;-76
2022/08/23 07:29:49;;;;;;;27.38;19.10;;;;;;;32.18;43.45;101403.22;5093119;28;20374;-76
2022/08/23 07:32:14;;;;;;;25.20;19.33;;;;;;;32.76;42.01;101397.50;5075615;28;20480;-76
2022/08/23 07:34:39;;;;;;;25.80;18.37;;;;;;;33.31;40.04;101407.00;5073952;28;20036;-76
2022/08/23 07:37:05;;;;;;;24.65;18.77;;;;;;;34.03;39.37;101397.41;5095045;28;20312;-76
2022/08/23 07:39:30;;;;;;;23.25;17.88;;;;;;;33.92;37.45;101403.88;5092067;28;20019;-76
2022/08/23 07:42:02;;;;;;;24.10;16.03;;;;;;;33.99;37.69;101399.28;5095064;28;20400;-76
2022/08/23 07:44:28;;;;;;;19.65;15.25;;;;;;;34.24;37.64;101405.44;5073966;28;20316;-76
2022/08/23 07:46:54;;;;;;;21.85;15.77;;;;;;;34.36;37.22;101408.13;5092171;28;20028;-76
2022/08/23 07:49:19;;;;;;;20.52;15.32;;;;;;;34.30;36.05;101420.66;5076747;28;20024;-76
2022/08/23 07:51:48;;;;;;;23.83;14.73;;;;;;;34.55;36.72;101420.44;5091811;28;20511;-76
2022/08/23 07:54:14;;;;;;;20.65;14.27;;;;;;;35.04;35.34;101413.19;5094926;28;20282;-76
2022/08/23 07:56:40;;;;;;;21.63;15.13;;;;;;;35.25;34.57;101423.91;5091823;28;20103;-76
2022/08/23 07:59:07;;;;;;;17.15;13.57;;;;;;;35.50;35.41;101412.47;5077027;28;20139;-76
2022/08/23 08:01:32;;;;;;;17.80;14.43;;;;;;;35.65;35.62;101419.94;5091874;28;20395;-76
2022/08/23 08:04:00;;;;;;;19.75;14.32;;;;;;;35.34;33.92;101416.19;5091696;28;20114;-76
2022/08/23 08:06:29;;;;;;;22.67;13.70;;;;;;;35.93;33.71;101427.97;5094785;28;20047;-76
2022/08/23 08:08:55;;;;;;;20.05;14.73;;;;;;;36.32;34.11;101427.81;5091604;28;20024;-76
2022/08/23 08:11:23;;;;;;;18.90;14.27;;;;;;;36.45;32.07;101418.88;5094487;28;20048;-76
2022/08/23 08:13:50;;;;;;;19.73;12.82;;;;;;;37.29;31.37;101425.91;5091538;28;20038;-76
2022/08/23 08:19:37;;;;;;;22.17;14.10;;;;;;;38.30;29.31;101432.03;5092000;28;20123;-76
2022/08/23 08:22:02;;;;;;;20.83;14.53;;;;;;;38.40;29.02;101444.47;5094571;28;20118;-77
2022/08/23 08:24:27;;;;;;;19.83;13.10;;;;;;;39.10;28.23;101434.88;5091493;28;20024;-75
2022/08/23 08:26:53;;;;;;;18.67;12.80;;;;;;;39.76;26.57;101431.81;5091404;28;20274;-74
2022/08/23 08:29:18;;;;;;;16.63;12.80;;;;;;;39.98;26.80;101436.22;5076765;28;20067;-74
2022/08/23 08:31:46;;;;;;;17.20;12.63;;;;;;;40.20;25.86;101437.00;5091346;28;20325;-74
2022/08/23 08:34:11;;;;;;;16.70;12.88;;;;;;;40.64;24.76;101436.50;5094390;28;20278;-74
2022/08/23 08:36:43;;;;;;;18.35;12.82;;;;;;;40.89;26.00;101439.25;5091316;28;20077;-74
2022/08/23 08:39:15;;;;;;;19.33;13.32;;;;;;;41.39;24.44;101444.63;5076358;28;20454;-74
2022/08/23 08:41:43;;;;;;;19.60;12.63;;;;;;;40.71;25.26;101439.28;5075872;28;20090;-74
2022/08/23 08:44:36;;;;;;;17.58;11.73;;;;;;;40.21;28.10;101435.81;5094888;28;20036;-74
2022/08/23 08:47:21;;;;;;;17.02;10.98;;;;;;;40.76;25.92;101438.84;5090373;28;20036;-74
2022/08/23 08:49:56;;;;;;;15.50;10.73;;;;;;;40.86;26.19;101442.88;5094776;28;20118;-74
2022/08/23 08:52:26;;;;;;;18.67;10.18;;;;;;;41.30;24.42;101438.63;5097872;28;20032;-75
2022/08/23 08:55:15;;;;;;;21.65;11.10;;;;;;;40.67;26.67;101437.69;5094655;28;20079;-74
2022/08/23 08:57:45;;;;;;;16.92;10.07;;;;;;;39.66;25.92;101444.59;5085218;28;20044;-74
2022/08/23 09:00:26;;;;;;;15.82;9.95;;;;;;;38.88;27.23;101444.34;5094594;28;20039;-74
2022/08/23 09:02:53;;;;;;;14.68;9.13;;;;;;;38.70;26.70;101444.25;5097587;28;20052;-74
2022/08/23 09:05:26;;;;;;;16.13;9.15;;;;;;;37.20;29.77;101448.53;5094682;28;20495;-73
2022/08/23 09:08:11;;;;;;;16.50;10.55;;;;;;;36.32;30.70;101453.69;5096912;28;20050;-74
2022/08/23 09:10:50;;;;;;;13.77;9.10;;;;;;;36.66;32.16;101451.78;5076271;28;20077;-74
2022/08/23 09:13:43;;;;;;;17.58;9.73;;;;;;;36.05;31.92;101454.81;5094593;28;20032;-74
2022/08/23 09:16:34;;;;;;;13.98;9.50;;;;;;;35.22;33.53;101446.09;5094342;28;20387;-74
2022/08/23 09:19:02;;;;;;;15.85;8.65;;;;;;;34.62;33.88;101448.38;5094431;28;20479;-74
2022/08/23 09:21:37;;;;;;;12.85;8.05;;;;;;;34.79;32.89;101437.66;5086731;28;20090;-74
2022/08/23 09:24:03;;;;;;;13.20;7.97;;;;;;;35.51;31.23;101439.13;5094327;28;20027;-74
2022/08/23 09:26:29;;;;;;;16.48;8.48;;;;;;;35.70;31.14;101445.47;5097153;28;20411;-74
2022/08/23 09:29:13;;;;;;;12.32;7.72;;;;;;;35.23;32.27;101448.50;5076163;28;20036;-74
2022/08/23 09:31:46;;;;;;;15.25;8.13;;;;;;;34.85;33.02;101448.53;5096978;28;20046;-74
2022/08/23 09:34:35;;;;;;;12.20;7.28;;;;;;;33.84;34.89;101447.31;5094100;28;20472;-73
2022/08/23 09:37:22;;;;;;;10.98;6.68;;;;;;;33.00;36.66;101457.59;5088616;28;20035;-74
2022/08/23 09:40:11;;;;;;;10.73;6.18;;;;;;;32.26;38.88;101448.56;5094030;28;20051;-74
2022/08/23 09:46:00;;;;;;;10.27;5.37;;;;;;;30.57;40.26;101450.28;5094267;28;20109;-75
2022/08/23 09:48:35;;;;;;;11.80;4.40;;;;;;;30.07;42.56;101443.59;5078904;28;20048;-76
2022/08/23 09:51:31;;;;;;;10.15;4.70;;;;;;;29.84;43.09;101444.94;5093798;28;20028;-75
2022/08/23 09:54:18;;;;;;;8.48;4.40;;;;;;;29.81;43.53;101451.91;5096093;28;20162;-75
2022/08/23 09:56:51;;;;;;;11.95;5.95;;;;;;;29.59;42.44;101443.84;5093723;28;20036;-76
2022/08/23 09:59:25;;;;;;;12.27;5.00;;;;;;;29.66;43.67;101437.84;5093849;28;20036;-75
2022/08/23 10:01:53;;;;;;;9.65;5.80;;;;;;;29.75;43.07;101442.19;5088534;28;20557;-75
2022/08/23 10:04:53;;;;;;;14.68;6.05;;;;;;;30.14;43.09;101438.34;5093999;28;20028;-75
2022/08/23 10:07:31;;;;;;;11.88;5.28;;;;;;;30.00;42.28;101440.47;5096561;28;20386;-76
2022/08/23 10:10:27;;;;;;;11.57;5.53;;;;;;;29.72;42.87;101431.00;5075371;28;20032;-76
2022/08/23 10:12:55;;;;;;;12.20;5.25;;;;;;;29.36;46.54;101425.88;5078600;28;20093;-75
2022/08/23 10:16:00;;;;;;;10.55;5.72;;;;;;;29.31;45.81;101418.59;5093359;28;20028;-75
2022/08/23 10:18:37;;;;;;;12.07;6.40;;;;;;;29.01;45.66;101422.34;5070585;28;20044;-76
2022/08/23 10:21:31;;;;;;;9.77;5.80;;;;;;;29.04;46.26;101427.19;5093338;28;20039;-76
2022/08/23 10:24:18;;;;;;;14.38;7.40;;;;;;;29.03;45.14;101434.66;5078449;28;20052;-76
2022/08/23 10:29:36;;;;;;;10.02;6.28;;;;;;;28.99;46.25;101406.94;5093175;28;20047;-76
2022/08/23 10:30:00;;;;;;;9.18;5.15;;;;;;;29.04;48.60;101425.25;5096031;28;20036;-75
2022/08/23 10:32:43;;;;;;;14.13;5.85;;;;;;;29.25;46.12;101423.47;5075102;28;20043;-75
2022/08/23 10:35:36;;;;;;;10.85;5.63;;;;;;;29.40;46.23;101419.38;5078284;28;20047;-75
2022/08/23 10:41:54;;;;;;;9.48;4.00;;;;;;;29.26;46.72;101419.56;5093425;28;20038;-75
2022/08/23 10:44:32;;;;;;;12.13;5.03;;;;;;;28.87;47.44;101423.28;5074807;28;20051;-75
2022/08/23 10:47:22;;;;;;;15.00;4.88;;;;;;;28.78;47.07;101414.19;5078064;28;20047;-76
2022/08/23 10:49:50;;;;;;;7.45;3.97;;;;;;;28.84;46.27;101414.84;5092857;28;20027;-76
2022/08/23 10:52:22;;;;;;;7.32;4.00;;;;;;;29.08;48.55;101415.19;5095855;28;20082;-76
2022/08/23 10:55:04;;;;;;;9.68;3.40;;;;;;;28.94;46.24;101412.63;5093014;28;20467;-76
2022/08/23 10:57:36;;;;;;;7.28;3.25;;;;;;;28.64;47.25;101408.84;5095876;28;20036;-75
2022/08/23 11:00:10;;;;;;;9.38;3.88;;;;;;;28.47;46.80;101413.50;5074594;28;20043;-75
2022/08/23 11:03:09;;;;;;;7.35;3.47;;;;;;;28.27;48.23;101410.22;5092677;28;20039;-75
2022/08/23 11:05:37;;;;;;;8.05;2.90;;;;;;;28.38;47.47;101400.56;5050824;28;20491;-76
2022/08/23 11:08:28;;;;;;;9.98;2.88;;;;;;;28.84;44.91;101401.88;5092592;28;20028;-76
2022/08/23 11:10:54;;;;;;;8.07;2.83;;;;;;;29.58;44.96;101404.47;5085487;28;20039;-75
2022/08/23 11:13:23;;;;;;;6.30;2.38;;;;;;;30.24;41.85;101398.53;5092515;28;20024;-75
2022/08/23 11:16:28;;;;;;;9.40;3.75;;;;;;;30.06;42.87;101402.50;5077612;28;20063;-75
2022/08/23 11:18:53;;;;;;;10.05;3.33;;;;;;;29.77;42.23;101404.06;5083005;28;20096;-75
2022/08/23 11:21:24;;;;;;;10.57;3.03;;;;;;;29.76;41.82;101398.88;5095335;28;20040;-76
2022/08/23 11:24:14;;;;;;;7.97;3.40;;;;;;;29.57;41.95;101408.34;5074395;28;20115;-76
2022/08/23 11:26:43;;;;;;;6.25;2.83;;;;;;;29.30;44.48;101404.00;5095184;28;20365;-75
2022/08/23 11:29:21;;;;;;;10.95;2.92;;;;;;;29.15;45.31;101414.69;5092482;28;20387;-76
2022/08/23 11:32:01;;;;;;;6.32;2.65;;;;;;;29.12;46.03;101405.16;5094143;28;20028;-75
2022/08/23 11:34:39;;;;;;;8.38;3.35;;;;;;;29.48;44.93;101406.75;5073954;28;20494;-75
2022/08/23 11:37:20;;;;;;;7.95;3.00;;;;;;;29.92;44.42;101409.03;5092213;28;20020;-75
2022/08/23 11:39:56;;;;;;;7.15;2.78;;;;;;;30.13;43.79;101402.81;5068261;28;20157;-75
2022/08/23 11:42:23;;;;;;;6.90;2.90;;;;;;;29.92;41.41;101403.53;5092318;28;20052;-75
2022/08/23 11:44:49;;;;;;;10.32;2.88;;;;;;;29.67;42.54;101401.66;5095114;28;20052;-75
2022/08/23 11:47:37;;;;;;;7.72;2.72;;;;;;;29.53;44.26;101401.06;5091971;28;20433;-75
2022/08/23 11:50:41;;;;;;;6.15;2.92;;;;;;;29.31;43.99;101404.81;5095063;28;20454;-76
2022/08/23 11:53:09;;;;;;;6.45;3.15;;;;;;;29.34;43.66;101400.59;5073200;28;20488;-75
2022/08/23 11:55:50;;;;;;;5.88;3.03;;;;;;;29.54;43.40;101402.69;5094975;28;20044;-75
2022/08/23 11:58:19;;;;;;;9.48;2.92;;;;;;;29.60;43.39;101401.38;5091921;28;20054;-75
2022/08/23 12:01:07;;;;;;;5.32;2.65;;;;;;;29.47;44.61;101405.94;5094759;28;20483;-75